sensor_id;sensor_type;location;lat;lon;timestamp;P1;durP1;ratioP1;P2;durP2;ratioP2
76589;SDS011;65471;55.908;37.880;2023-02-22T10:37:28;28.55;;;12.20;;
76589;SDS011;65471;55.908;37.880;2023-02-22T10:39:59;30.38;;;11.73;;
76589;SDS011;65471;55.908;37.880;2023-02-22T10:42:36;31.63;;;11.80;;
76589;SDS011;65471;55.908;37.880;2023-02-22T10:45:04;28.13;;;11.65;;
76589;SDS011;65471;55.908;37.880;2023-02-22T10:47:43;30.63;;;13.23;;
76589;SDS011;65471;55.908;37.880;2023-02-22T10:50:12;30.90;;;10.98;;
76589;SDS011;65471;55.908;37.880;2023-02-22T10:52:40;29.00;;;12.82;;
76589;SDS011;65471;55.908;37.880;2023-02-22T10:55:11;28.42;;;12.50;;
76589;SDS011;65471;55.908;37.880;2023-02-22T10:57:41;23.20;;;11.30;;
76589;SDS011;65471;55.908;37.880;2023-02-22T11:05:33;31.77;;;12.65;;
76589;SDS011;65471;55.908;37.880;2023-02-22T11:16:01;27.48;;;9.52;;
76589;SDS011;65471;55.908;37.880;2023-02-22T11:18:49;29.02;;;9.70;;
76589;SDS011;65471;55.908;37.880;2023-02-22T11:21:26;37.17;;;13.15;;
76589;SDS011;65471;55.908;37.880;2023-02-22T11:24:04;28.15;;;11.20;;
76589;SDS011;65471;55.908;37.880;2023-02-22T11:26:48;35.67;;;11.52;;
76589;SDS011;65471;55.908;37.880;2023-02-22T11:29:18;27.98;;;11.60;;
76589;SDS011;65471;55.908;37.880;2023-02-22T11:31:50;16.73;;;8.57;;
76589;SDS011;65471;55.908;37.880;2023-02-22T11:34:34;22.38;;;9.57;;
76589;SDS011;65471;55.908;37.880;2023-02-22T11:37:26;26.27;;;10.35;;
76589;SDS011;65471;55.908;37.880;2023-02-22T11:40:04;22.25;;;9.90;;
76589;SDS011;65471;55.908;37.880;2023-02-22T11:42:55;25.02;;;11.80;;
76589;SDS011;65471;55.908;37.880;2023-02-22T11:45:37;21.75;;;11.50;;
76589;SDS011;65471;55.908;37.880;2023-02-22T11:48:18;32.30;;;10.48;;
76589;SDS011;65471;55.908;37.880;2023-02-22T11:56:30;21.38;;;11.13;;
76589;SDS011;65471;55.908;37.880;2023-02-22T12:04:55;35.40;;;11.45;;
76589;SDS011;65471;55.908;37.880;2023-02-22T12:16:31;27.30;;;10.30;;
76589;SDS011;65471;55.908;37.880;2023-02-22T12:19:29;31.75;;;12.48;;
76589;SDS011;65471;55.908;37.880;2023-02-22T12:22:12;20.90;;;9.38;;
76589;SDS011;65471;55.908;37.880;2023-02-22T12:24:48;23.55;;;10.32;;
76589;SDS011;65471;55.908;37.880;2023-02-22T12:27:35;23.77;;;11.93;;
76589;SDS011;65471;55.908;37.880;2023-02-22T12:30:11;24.45;;;9.23;;
76589;SDS011;65471;55.908;37.880;2023-02-22T12:32:44;22.48;;;9.68;;
76589;SDS011;65471;55.908;37.880;2023-02-22T12:35:24;22.42;;;10.77;;
76589;SDS011;65471;55.908;37.880;2023-02-22T12:37:55;31.75;;;11.68;;
76589;SDS011;65471;55.908;37.880;2023-02-22T12:43:33;33.70;;;10.55;;
76589;SDS011;65471;55.908;37.880;2023-02-22T12:46:11;21.88;;;10.30;;
76589;SDS011;65471;55.908;37.880;2023-02-22T12:48:57;18.38;;;9.55;;
76589;SDS011;65471;55.908;37.880;2023-02-22T12:54:12;23.25;;;10.88;;
76589;SDS011;65471;55.908;37.880;2023-02-22T12:56:52;20.75;;;8.82;;
76589;SDS011;65471;55.908;37.880;2023-02-22T12:59:26;21.83;;;9.65;;
76589;SDS011;65471;55.908;37.880;2023-02-22T13:01:59;18.70;;;9.52;;
76589;SDS011;65471;55.908;37.880;2023-02-22T13:04:36;27.95;;;12.05;;
76589;SDS011;65471;55.908;37.880;2023-02-22T13:15:26;19.40;;;8.93;;
76589;SDS011;65471;55.908;37.880;2023-02-22T13:18:09;54.60;;;18.88;;
76589;SDS011;65471;55.908;37.880;2023-02-22T13:21:03;31.75;;;12.95;;
76589;SDS011;65471;55.908;37.880;2023-02-22T13:26:43;14.75;;;9.50;;
76589;SDS011;65471;55.908;37.880;2023-02-22T13:29:18;29.20;;;9.77;;
76589;SDS011;65471;55.908;37.880;2023-02-22T13:56:24;26.00;;;10.43;;
76589;SDS011;65471;55.908;37.880;2023-02-22T13:58:59;19.77;;;10.23;;
76589;SDS011;65471;55.908;37.880;2023-02-22T14:04:17;23.88;;;10.25;;
76589;SDS011;65471;55.908;37.880;2023-02-22T14:06:59;20.83;;;9.93;;
76589;SDS011;65471;55.908;37.880;2023-02-22T14:22:56;20.23;;;9.38;;
76589;SDS011;65471;55.908;37.880;2023-02-22T14:25:43;21.40;;;9.20;;
76589;SDS011;65471;55.908;37.880;2023-02-22T14:31:16;18.02;;;9.52;;
76589;SDS011;65471;55.908;37.880;2023-02-22T14:34:01;21.80;;;9.95;;
76589;SDS011;65471;55.908;37.880;2023-02-22T14:36:31;29.90;;;11.88;;
76589;SDS011;65471;55.908;37.880;2023-02-22T14:39:12;23.08;;;10.05;;
76589;SDS011;65471;55.908;37.880;2023-02-22T14:41:48;17.88;;;9.65;;
76589;SDS011;65471;55.908;37.880;2023-02-22T14:44:42;22.60;;;9.75;;
76589;SDS011;65471;55.908;37.880;2023-02-22T14:47:27;18.80;;;8.98;;
76589;SDS011;65471;55.908;37.880;2023-02-22T14:50:12;29.65;;;10.20;;
76589;SDS011;65471;55.908;37.880;2023-02-22T14:52:40;31.15;;;10.13;;
76589;SDS011;65471;55.908;37.880;2023-02-22T14:55:19;22.10;;;9.32;;
76589;SDS011;65471;55.908;37.880;2023-02-22T14:57:53;18.33;;;8.70;;
76589;SDS011;65471;55.908;37.880;2023-02-22T15:00:45;14.00;;;8.02;;
76589;SDS011;65471;55.908;37.880;2023-02-22T15:05:45;24.67;;;8.52;;
76589;SDS011;65471;55.908;37.880;2023-02-22T15:08:12;20.20;;;9.02;;
76589;SDS011;65471;55.908;37.880;2023-02-22T15:10:46;22.83;;;10.05;;
76589;SDS011;65471;55.908;37.880;2023-02-22T15:13:26;23.73;;;11.45;;
76589;SDS011;65471;55.908;37.880;2023-02-22T15:15:58;24.58;;;9.90;;
76589;SDS011;65471;55.908;37.880;2023-02-22T15:18:37;14.68;;;8.90;;
76589;SDS011;65471;55.908;37.880;2023-02-22T15:21:09;21.45;;;9.88;;
76589;SDS011;65471;55.908;37.880;2023-02-22T15:29:27;22.88;;;9.50;;
76589;SDS011;65471;55.908;37.880;2023-02-22T15:32:00;25.23;;;9.32;;
76589;SDS011;65471;55.908;37.880;2023-02-22T15:34:29;17.65;;;8.38;;
76589;SDS011;65471;55.908;37.880;2023-02-22T15:37:01;22.88;;;8.50;;
76589;SDS011;65471;55.908;37.880;2023-02-22T15:39:44;23.85;;;8.77;;
76589;SDS011;65471;55.908;37.880;2023-02-22T15:44:46;22.25;;;9.23;;
76589;SDS011;65471;55.908;37.880;2023-02-22T15:47:25;25.90;;;9.25;;
76589;SDS011;65471;55.908;37.880;2023-02-22T15:50:13;15.35;;;8.02;;
76589;SDS011;65471;55.908;37.880;2023-02-22T15:52:47;22.27;;;8.93;;
76589;SDS011;65471;55.908;37.880;2023-02-22T15:55:24;29.52;;;10.65;;
76589;SDS011;65471;55.908;37.880;2023-02-22T15:58:06;26.95;;;10.75;;
76589;SDS011;65471;55.908;37.880;2023-02-22T16:00:46;30.67;;;11.45;;
76589;SDS011;65471;55.908;37.880;2023-02-22T16:03:23;22.30;;;9.77;;
76589;SDS011;65471;55.908;37.880;2023-02-22T16:05:55;28.38;;;11.25;;
76589;SDS011;65471;55.908;37.880;2023-02-22T16:10:58;18.05;;;10.15;;
76589;SDS011;65471;55.908;37.880;2023-02-22T16:13:33;24.20;;;9.43;;
76589;SDS011;65471;55.908;37.880;2023-02-22T16:16:03;20.77;;;9.00;;
76589;SDS011;65471;55.908;37.880;2023-02-22T16:18:33;24.50;;;8.90;;
76589;SDS011;65471;55.908;37.880;2023-02-22T16:21:23;26.13;;;10.10;;
76589;SDS011;65471;55.908;37.880;2023-02-22T16:26:40;18.98;;;9.25;;
76589;SDS011;65471;55.908;37.880;2023-02-22T16:29:07;13.43;;;7.85;;
76589;SDS011;65471;55.908;37.880;2023-02-22T16:31:36;16.30;;;8.85;;
76589;SDS011;65471;55.908;37.880;2023-02-22T16:34:05;26.23;;;10.77;;
76589;SDS011;65471;55.908;37.880;2023-02-22T16:36:40;18.65;;;8.50;;
76589;SDS011;65471;55.908;37.880;2023-02-22T16:39:09;24.33;;;10.75;;
76589;SDS011;65471;55.908;37.880;2023-02-22T16:41:44;24.40;;;8.90;;
76589;SDS011;65471;55.908;37.880;2023-02-22T16:44:11;13.85;;;9.00;;
76589;SDS011;65471;55.908;37.880;2023-02-22T16:46:39;14.25;;;8.20;;
76589;SDS011;65471;55.908;37.880;2023-02-22T16:49:10;15.70;;;5.43;;
76589;SDS011;65471;55.908;37.880;2023-02-22T16:51:40;18.08;;;8.63;;
76589;SDS011;65471;55.908;37.880;2023-02-22T16:54:11;10.13;;;5.43;;
76589;SDS011;65471;55.908;37.880;2023-02-22T16:56:44;23.58;;;8.85;;
76589;SDS011;65471;55.908;37.880;2023-02-22T16:59:12;19.38;;;8.55;;
76589;SDS011;65471;55.908;37.880;2023-02-22T17:01:41;30.08;;;8.27;;
76589;SDS011;65471;55.908;37.880;2023-02-22T17:04:12;19.38;;;9.68;;
76589;SDS011;65471;55.908;37.880;2023-02-22T17:06:40;22.50;;;9.63;;
76589;SDS011;65471;55.908;37.880;2023-02-22T17:09:07;15.52;;;8.73;;
76589;SDS011;65471;55.908;37.880;2023-02-22T17:11:34;21.27;;;8.88;;
76589;SDS011;65471;55.908;37.880;2023-02-22T17:14:02;23.85;;;8.45;;
76589;SDS011;65471;55.908;37.880;2023-02-22T17:16:30;15.57;;;8.10;;
76589;SDS011;65471;55.908;37.880;2023-02-22T17:18:57;27.13;;;7.05;;
76589;SDS011;65471;55.908;37.880;2023-02-22T17:21:23;23.90;;;8.85;;
76589;SDS011;65471;55.908;37.880;2023-02-22T17:23:50;14.00;;;6.88;;
76589;SDS011;65471;55.908;37.880;2023-02-22T17:26:17;20.92;;;8.30;;
76589;SDS011;65471;55.908;37.880;2023-02-22T17:28:44;22.58;;;9.27;;
76589;SDS011;65471;55.908;37.880;2023-02-22T17:31:21;20.75;;;9.00;;
76589;SDS011;65471;55.908;37.880;2023-02-22T17:33:51;17.67;;;9.00;;
76589;SDS011;65471;55.908;37.880;2023-02-22T17:36:20;20.42;;;8.38;;
76589;SDS011;65471;55.908;37.880;2023-02-22T17:38:48;15.27;;;8.18;;
76589;SDS011;65471;55.908;37.880;2023-02-22T17:41:15;14.02;;;8.63;;
76589;SDS011;65471;55.908;37.880;2023-02-22T17:43:42;25.85;;;10.98;;
76589;SDS011;65471;55.908;37.880;2023-02-22T17:46:09;20.98;;;8.88;;
76589;SDS011;65471;55.908;37.880;2023-02-22T17:48:36;19.67;;;9.55;;
76589;SDS011;65471;55.908;37.880;2023-02-22T17:51:05;16.58;;;8.20;;
76589;SDS011;65471;55.908;37.880;2023-02-22T17:53:33;15.10;;;8.18;;
76589;SDS011;65471;55.908;37.880;2023-02-22T17:56:07;11.45;;;7.90;;
76589;SDS011;65471;55.908;37.880;2023-02-22T17:58:35;18.23;;;8.50;;
76589;SDS011;65471;55.908;37.880;2023-02-22T18:01:02;15.05;;;8.88;;
76589;SDS011;65471;55.908;37.880;2023-02-22T18:03:30;11.35;;;7.93;;
76589;SDS011;65471;55.908;37.880;2023-02-22T18:05:58;26.88;;;9.07;;
76589;SDS011;65471;55.908;37.880;2023-02-22T18:08:26;26.45;;;9.45;;
76589;SDS011;65471;55.908;37.880;2023-02-22T18:10:55;23.50;;;9.50;;
76589;SDS011;65471;55.908;37.880;2023-02-22T18:13:23;26.35;;;8.98;;
76589;SDS011;65471;55.908;37.880;2023-02-22T18:15:51;21.10;;;8.85;;
76589;SDS011;65471;55.908;37.880;2023-02-22T18:18:22;25.08;;;8.15;;
76589;SDS011;65471;55.908;37.880;2023-02-22T18:20:49;28.80;;;8.90;;
76589;SDS011;65471;55.908;37.880;2023-02-22T18:23:25;15.95;;;8.60;;
76589;SDS011;65471;55.908;37.880;2023-02-22T18:25:53;20.15;;;7.45;;
76589;SDS011;65471;55.908;37.880;2023-02-22T18:28:36;22.10;;;8.55;;
76589;SDS011;65471;55.908;37.880;2023-02-22T18:31:10;21.08;;;8.77;;
76589;SDS011;65471;55.908;37.880;2023-02-22T18:33:42;23.83;;;9.25;;
76589;SDS011;65471;55.908;37.880;2023-02-22T18:36:11;18.90;;;7.43;;
76589;SDS011;65471;55.908;37.880;2023-02-22T18:38:39;26.08;;;8.80;;
76589;SDS011;65471;55.908;37.880;2023-02-22T18:41:12;14.25;;;7.63;;
76589;SDS011;65471;55.908;37.880;2023-02-22T18:43:40;18.48;;;9.48;;
76589;SDS011;65471;55.908;37.880;2023-02-22T18:48:44;20.58;;;8.38;;
76589;SDS011;65471;55.908;37.880;2023-02-22T18:51:13;14.23;;;7.13;;
76589;SDS011;65471;55.908;37.880;2023-02-22T18:53:42;18.63;;;8.38;;
76589;SDS011;65471;55.908;37.880;2023-02-22T18:56:13;18.52;;;8.43;;
76589;SDS011;65471;55.908;37.880;2023-02-22T18:58:51;16.13;;;8.45;;
76589;SDS011;65471;55.908;37.880;2023-02-22T19:01:18;21.45;;;8.75;;
76589;SDS011;65471;55.908;37.880;2023-02-22T19:03:46;17.98;;;8.25;;
76589;SDS011;65471;55.908;37.880;2023-02-22T19:06:13;20.27;;;9.18;;
76589;SDS011;65471;55.908;37.880;2023-02-22T19:08:42;13.95;;;7.70;;
76589;SDS011;65471;55.908;37.880;2023-02-22T19:11:14;18.30;;;7.80;;
76589;SDS011;65471;55.908;37.880;2023-02-22T19:13:48;21.23;;;7.85;;
76589;SDS011;65471;55.908;37.880;2023-02-22T19:16:17;12.55;;;7.47;;
76589;SDS011;65471;55.908;37.880;2023-02-22T19:18:47;14.05;;;7.30;;
76589;SDS011;65471;55.908;37.880;2023-02-22T19:21:15;12.07;;;7.10;;
76589;SDS011;65471;55.908;37.880;2023-02-22T19:23:42;12.35;;;6.85;;
76589;SDS011;65471;55.908;37.880;2023-02-22T19:26:15;19.52;;;8.52;;
76589;SDS011;65471;55.908;37.880;2023-02-22T19:28:49;23.30;;;7.88;;
76589;SDS011;65471;55.908;37.880;2023-02-22T19:31:22;16.67;;;8.50;;
76589;SDS011;65471;55.908;37.880;2023-02-22T19:33:57;23.15;;;9.48;;
76589;SDS011;65471;55.908;37.880;2023-02-22T19:36:26;22.13;;;9.60;;
76589;SDS011;65471;55.908;37.880;2023-02-22T19:38:53;13.95;;;7.82;;
76589;SDS011;65471;55.908;37.880;2023-02-22T19:41:20;16.48;;;7.40;;
76589;SDS011;65471;55.908;37.880;2023-02-22T19:43:49;20.50;;;8.65;;
76589;SDS011;65471;55.908;37.880;2023-02-22T19:46:17;17.85;;;8.50;;
76589;SDS011;65471;55.908;37.880;2023-02-22T19:48:46;16.50;;;8.00;;
76589;SDS011;65471;55.908;37.880;2023-02-22T19:51:14;21.40;;;9.33;;
76589;SDS011;65471;55.908;37.880;2023-02-22T19:53:43;25.30;;;9.70;;
76589;SDS011;65471;55.908;37.880;2023-02-22T19:56:11;25.92;;;9.63;;
76589;SDS011;65471;55.908;37.880;2023-02-22T19:58:43;17.30;;;9.82;;
76589;SDS011;65471;55.908;37.880;2023-02-22T20:03:39;18.95;;;8.13;;
76589;SDS011;65471;55.908;37.880;2023-02-22T20:06:08;14.15;;;7.88;;
76589;SDS011;65471;55.908;37.880;2023-02-22T20:08:37;10.68;;;7.95;;
76589;SDS011;65471;55.908;37.880;2023-02-22T20:11:08;18.35;;;7.60;;
76589;SDS011;65471;55.908;37.880;2023-02-22T20:13:38;16.92;;;7.63;;
76589;SDS011;65471;55.908;37.880;2023-02-22T20:16:06;17.65;;;7.95;;
76589;SDS011;65471;55.908;37.880;2023-02-22T20:18:35;12.80;;;7.22;;
76589;SDS011;65471;55.908;37.880;2023-02-22T20:21:12;28.50;;;8.02;;
76589;SDS011;65471;55.908;37.880;2023-02-22T20:23:45;20.40;;;9.52;;
76589;SDS011;65471;55.908;37.880;2023-02-22T20:26:16;9.70;;;5.95;;
76589;SDS011;65471;55.908;37.880;2023-02-22T20:28:45;22.92;;;9.43;;
76589;SDS011;65471;55.908;37.880;2023-02-22T20:31:12;15.15;;;7.57;;
76589;SDS011;65471;55.908;37.880;2023-02-22T20:33:40;21.45;;;9.07;;
76589;SDS011;65471;55.908;37.880;2023-02-22T20:36:08;14.82;;;8.15;;
76589;SDS011;65471;55.908;37.880;2023-02-22T20:38:36;27.33;;;8.38;;
76589;SDS011;65471;55.908;37.880;2023-02-22T20:41:04;17.58;;;7.28;;
76589;SDS011;65471;55.908;37.880;2023-02-22T20:43:37;16.30;;;8.27;;
76589;SDS011;65471;55.908;37.880;2023-02-22T20:46:05;19.45;;;7.43;;
76589;SDS011;65471;55.908;37.880;2023-02-22T20:48:33;11.93;;;7.60;;
76589;SDS011;65471;55.908;37.880;2023-02-22T20:51:07;11.57;;;7.97;;
76589;SDS011;65471;55.908;37.880;2023-02-22T20:53:36;17.63;;;7.72;;
76589;SDS011;65471;55.908;37.880;2023-02-22T20:56:14;13.90;;;7.13;;
76589;SDS011;65471;55.908;37.880;2023-02-22T20:58:42;18.88;;;8.52;;
76589;SDS011;65471;55.908;37.880;2023-02-22T21:01:09;21.05;;;8.68;;
76589;SDS011;65471;55.908;37.880;2023-02-22T21:03:38;9.55;;;6.53;;
76589;SDS011;65471;55.908;37.880;2023-02-22T21:06:08;12.05;;;7.78;;
76589;SDS011;65471;55.908;37.880;2023-02-22T21:08:37;18.83;;;7.78;;
76589;SDS011;65471;55.908;37.880;2023-02-22T21:11:05;11.82;;;7.72;;
76589;SDS011;65471;55.908;37.880;2023-02-22T21:13:36;17.83;;;9.15;;
76589;SDS011;65471;55.908;37.880;2023-02-22T21:16:04;15.10;;;7.53;;
76589;SDS011;65471;55.908;37.880;2023-02-22T21:18:31;12.10;;;7.00;;
76589;SDS011;65471;55.908;37.880;2023-02-22T21:21:02;19.00;;;6.20;;
76589;SDS011;65471;55.908;37.880;2023-02-22T21:23:38;8.73;;;6.93;;
76589;SDS011;65471;55.908;37.880;2023-02-22T21:26:06;11.70;;;7.13;;
76589;SDS011;65471;55.908;37.880;2023-02-22T21:28:38;14.85;;;7.88;;
76589;SDS011;65471;55.908;37.880;2023-02-22T21:31:17;18.60;;;7.93;;
76589;SDS011;65471;55.908;37.880;2023-02-22T21:33:50;23.30;;;8.88;;
76589;SDS011;65471;55.908;37.880;2023-02-22T21:36:19;12.60;;;7.15;;
76589;SDS011;65471;55.908;37.880;2023-02-22T21:38:54;14.80;;;7.20;;
76589;SDS011;65471;55.908;37.880;2023-02-22T21:41:24;27.70;;;8.18;;
76589;SDS011;65471;55.908;37.880;2023-02-22T21:43:54;13.13;;;7.00;;
76589;SDS011;65471;55.908;37.880;2023-02-22T21:46:23;17.25;;;8.80;;
76589;SDS011;65471;55.908;37.880;2023-02-22T21:48:51;19.77;;;6.68;;
76589;SDS011;65471;55.908;37.880;2023-02-22T21:51:19;9.98;;;5.90;;
76589;SDS011;65471;55.908;37.880;2023-02-22T21:53:49;16.88;;;6.80;;
76589;SDS011;65471;55.908;37.880;2023-02-22T21:56:22;12.50;;;6.63;;
76589;SDS011;65471;55.908;37.880;2023-02-22T21:59:02;14.23;;;8.25;;
76589;SDS011;65471;55.908;37.880;2023-02-22T22:01:34;12.57;;;6.38;;
76589;SDS011;65471;55.908;37.880;2023-02-22T22:04:04;14.70;;;6.85;;
76589;SDS011;65471;55.908;37.880;2023-02-22T22:06:31;13.48;;;7.65;;
76589;SDS011;65471;55.908;37.880;2023-02-22T22:11:26;16.20;;;6.63;;
76589;SDS011;65471;55.908;37.880;2023-02-22T22:13:56;14.73;;;6.88;;
76589;SDS011;65471;55.908;37.880;2023-02-22T22:18:55;12.15;;;5.47;;
76589;SDS011;65471;55.908;37.880;2023-02-22T22:21:22;15.00;;;7.22;;
76589;SDS011;65471;55.908;37.880;2023-02-22T22:23:51;13.38;;;7.22;;
76589;SDS011;65471;55.908;37.880;2023-02-22T22:26:23;10.82;;;7.18;;
76589;SDS011;65471;55.908;37.880;2023-02-22T22:28:52;22.98;;;7.10;;
76589;SDS011;65471;55.908;37.880;2023-02-22T22:31:21;20.13;;;7.22;;
76589;SDS011;65471;55.908;37.880;2023-02-22T22:33:50;17.63;;;7.88;;
76589;SDS011;65471;55.908;37.880;2023-02-22T22:36:18;13.10;;;6.90;;
76589;SDS011;65471;55.908;37.880;2023-02-22T22:38:46;10.57;;;6.85;;
76589;SDS011;65471;55.908;37.880;2023-02-22T22:41:14;14.02;;;8.35;;
76589;SDS011;65471;55.908;37.880;2023-02-22T22:43:44;20.35;;;7.95;;
76589;SDS011;65471;55.908;37.880;2023-02-22T22:46:13;13.85;;;6.47;;
76589;SDS011;65471;55.908;37.880;2023-02-22T22:48:41;9.38;;;6.20;;
76589;SDS011;65471;55.908;37.880;2023-02-22T22:51:18;16.10;;;6.53;;
76589;SDS011;65471;55.908;37.880;2023-02-22T22:53:47;9.48;;;6.10;;
76589;SDS011;65471;55.908;37.880;2023-02-22T22:56:16;11.45;;;6.25;;
76589;SDS011;65471;55.908;37.880;2023-02-22T22:58:48;14.90;;;6.78;;
76589;SDS011;65471;55.908;37.880;2023-02-22T23:01:17;8.13;;;6.32;;
76589;SDS011;65471;55.908;37.880;2023-02-22T23:03:53;15.77;;;6.55;;
76589;SDS011;65471;55.908;37.880;2023-02-22T23:06:23;12.48;;;6.55;;
76589;SDS011;65471;55.908;37.880;2023-02-22T23:09:00;11.80;;;6.82;;
76589;SDS011;65471;55.908;37.880;2023-02-22T23:11:38;11.07;;;6.53;;
76589;SDS011;65471;55.908;37.880;2023-02-22T23:14:17;13.90;;;6.00;;
76589;SDS011;65471;55.908;37.880;2023-02-22T23:16:46;12.82;;;6.70;;
76589;SDS011;65471;55.908;37.880;2023-02-22T23:21:42;7.35;;;5.25;;
76589;SDS011;65471;55.908;37.880;2023-02-22T23:24:11;15.13;;;6.53;;
76589;SDS011;65471;55.908;37.880;2023-02-22T23:26:43;12.05;;;6.47;;
76589;SDS011;65471;55.908;37.880;2023-02-22T23:29:16;14.18;;;6.78;;
76589;SDS011;65471;55.908;37.880;2023-02-22T23:31:45;17.13;;;6.85;;
76589;SDS011;65471;55.908;37.880;2023-02-22T23:34:17;18.58;;;7.40;;
76589;SDS011;65471;55.908;37.880;2023-02-22T23:36:46;11.63;;;6.20;;
76589;SDS011;65471;55.908;37.880;2023-02-22T23:39:14;11.98;;;6.35;;
76589;SDS011;65471;55.908;37.880;2023-02-22T23:41:43;15.80;;;6.90;;
76589;SDS011;65471;55.908;37.880;2023-02-22T23:44:10;16.17;;;7.70;;
76589;SDS011;65471;55.908;37.880;2023-02-22T23:46:43;6.47;;;4.85;;
76589;SDS011;65471;55.908;37.880;2023-02-22T23:49:14;14.55;;;6.57;;
76589;SDS011;65471;55.908;37.880;2023-02-22T23:51:46;19.15;;;6.47;;
76589;SDS011;65471;55.908;37.880;2023-02-22T23:54:14;21.08;;;6.65;;
76589;SDS011;65471;55.908;37.880;2023-02-22T23:56:47;10.02;;;7.03;;
76589;SDS011;65471;55.908;37.880;2023-02-22T23:59:24;15.75;;;6.55;;
